createdAt,value
2019-04-19T00:01:02.694Z,13.71
2019-04-19T00:03:32.159Z,13.61
2019-04-19T00:06:05.909Z,13.56
2019-04-19T00:08:45.327Z,13.57
2019-04-19T00:11:12.972Z,13.53
2019-04-19T00:13:32.572Z,13.51
2019-04-19T00:16:02.564Z,13.47
2019-04-19T00:18:31.256Z,13.44
2019-04-19T00:21:19.827Z,13.42
2019-04-19T00:23:36.675Z,13.40
2019-04-19T00:26:00.192Z,13.41
2019-04-19T00:28:39.202Z,13.37
2019-04-19T00:31:14.388Z,13.36
2019-04-19T00:33:37.564Z,13.33
2019-04-19T00:36:00.283Z,13.32
2019-04-19T00:38:51.428Z,13.34
2019-04-19T00:41:25.616Z,13.30
2019-04-19T00:44:06.687Z,13.30
2019-04-19T00:46:55.359Z,13.22
2019-04-19T00:49:14.753Z,13.14
2019-04-19T00:51:55.140Z,13.17
2019-04-19T00:54:13.018Z,13.18
2019-04-19T00:56:42.667Z,13.12
2019-04-19T00:59:07.892Z,13.07
2019-04-19T01:01:33.993Z,13.08
2019-04-19T01:04:05.321Z,13.06
2019-04-19T01:06:41.968Z,13.03
2019-04-19T01:09:20.151Z,13.06
2019-04-19T01:11:52.708Z,13.06
2019-04-19T01:14:17.273Z,13.04
2019-04-19T01:16:51.709Z,13.02
2019-04-19T01:19:09.851Z,13.01
2019-04-19T01:21:36.546Z,13.04
2019-04-19T01:24:06.523Z,12.95
2019-04-19T01:26:40.608Z,13.00
2019-04-19T01:29:10.446Z,12.95
2019-04-19T01:31:35.835Z,12.94
2019-04-19T01:34:14.723Z,12.93
2019-04-19T01:36:39.096Z,12.95
2019-04-19T01:39:21.614Z,12.97
2019-04-19T01:41:51.595Z,12.94
2019-04-19T01:44:29.117Z,12.93
2019-04-19T01:47:00.696Z,12.95
2019-04-19T01:49:30.037Z,12.89
2019-04-19T01:52:07.761Z,12.88
2019-04-19T01:54:36.973Z,12.92
2019-04-19T01:56:57.138Z,12.87
2019-04-19T01:59:25.376Z,12.91
2019-04-19T02:01:59.432Z,12.90
2019-04-19T02:04:27.787Z,12.89
2019-04-19T02:06:53.345Z,12.88
2019-04-19T02:09:31.547Z,12.85
2019-04-19T02:12:13.194Z,12.81
2019-04-19T02:14:37.612Z,12.74
2019-04-19T02:17:03.185Z,12.76
2019-04-19T02:19:30.137Z,12.73
2019-04-19T02:22:00.090Z,12.72
2019-04-19T02:24:36.262Z,12.73
2019-04-19T02:27:03.328Z,12.70
2019-04-19T02:29:31.722Z,12.68
2019-04-19T02:39:57.398Z,12.60
2019-04-19T02:42:35.178Z,12.55
2019-04-19T02:45:12.069Z,12.54
2019-04-19T02:47:38.523Z,12.48
2019-04-19T02:50:02.068Z,12.40
2019-04-19T02:52:34.113Z,12.43
2019-04-19T02:55:05.566Z,12.38
2019-04-19T03:02:47.784Z,12.28
2019-04-19T03:05:14.960Z,12.19
2019-04-19T03:07:17.986Z,12.16
2019-04-19T03:09:47.308Z,12.07
2019-04-19T03:12:39.818Z,12.08
2019-04-19T03:15:02.022Z,12.06
2019-04-19T03:17:34.640Z,12.04
2019-04-19T03:20:09.006Z,11.92
2019-04-19T03:22:34.588Z,11.93
2019-04-19T03:25:08.332Z,11.88
2019-04-19T03:27:26.425Z,11.91
2019-04-19T03:29:59.963Z,11.90
2019-04-19T03:32:56.039Z,11.84
2019-04-19T03:35:03.908Z,11.76
2019-04-19T03:37:38.369Z,11.72
2019-04-19T03:40:18.955Z,11.74
2019-04-19T03:42:57.806Z,11.75
2019-04-19T03:45:28.970Z,11.70
2019-04-19T03:48:04.726Z,11.65
2019-04-19T03:50:36.282Z,11.61
2019-04-19T03:53:00.664Z,11.61
2019-04-19T03:55:34.848Z,11.55
2019-04-19T03:57:54.030Z,11.49
2019-04-19T04:00:15.461Z,11.52
2019-04-19T04:02:46.773Z,11.46
2019-04-19T04:05:17.435Z,11.46
2019-04-19T04:07:55.223Z,11.42
2019-04-19T04:10:29.293Z,11.48
2019-04-19T04:13:13.312Z,11.41
2019-04-19T04:15:46.743Z,11.41
2019-04-19T04:18:02.898Z,11.39
2019-04-19T04:20:35.328Z,11.34
2019-04-19T04:23:07.622Z,11.36
2019-04-19T04:25:45.295Z,11.29
2019-04-19T04:28:14.377Z,11.32
2019-04-19T04:30:42.088Z,11.35
2019-04-19T04:33:10.589Z,11.35
2019-04-19T04:35:49.098Z,11.35
2019-04-19T04:38:13.750Z,11.31
2019-04-19T04:40:33.807Z,11.28
2019-04-19T04:43:16.706Z,11.31
2019-04-19T04:46:01.854Z,11.32
2019-04-19T04:48:32.414Z,11.28
2019-04-19T04:51:15.405Z,11.33
2019-04-19T04:53:30.125Z,11.30
2019-04-19T04:56:03.865Z,11.34
2019-04-19T04:58:35.780Z,11.33
2019-04-19T05:01:05.838Z,11.35
2019-04-19T05:03:48.421Z,11.38
2019-04-19T05:06:24.657Z,11.45
2019-04-19T05:08:50.126Z,11.48
2019-04-19T05:11:22.844Z,11.49
2019-04-19T05:13:50.071Z,11.54
2019-04-19T05:16:27.427Z,11.59
2019-04-19T05:18:49.530Z,11.73
2019-04-19T05:21:23.079Z,11.75
2019-04-19T05:23:59.384Z,11.90
2019-04-19T05:26:37.451Z,11.99
2019-04-19T05:28:50.235Z,12.04
2019-04-19T05:31:09.007Z,12.17
2019-04-19T05:33:47.950Z,12.32
2019-04-19T05:36:27.596Z,12.43
2019-04-19T05:39:00.065Z,12.53
2019-04-19T05:41:26.230Z,12.62
2019-04-19T05:46:47.063Z,12.91
2019-04-19T05:49:12.681Z,13.03
2019-04-19T05:51:57.989Z,13.08
2019-04-19T05:53:58.319Z,13.20
2019-04-19T05:56:24.397Z,13.30
2019-04-19T05:59:03.581Z,13.51
2019-04-19T06:01:41.387Z,13.70
2019-04-19T06:04:11.900Z,13.77
2019-04-19T06:06:51.325Z,13.89
2019-04-19T06:08:54.136Z,14.01
2019-04-19T06:11:30.045Z,14.18
2019-04-19T06:14:12.492Z,14.31
2019-04-19T06:16:38.867Z,14.52
2019-04-19T06:19:16.786Z,14.60
2019-04-19T06:21:43.931Z,14.94
2019-04-19T06:24:17.969Z,15.36
2019-04-19T06:29:14.850Z,15.66
2019-04-19T06:31:56.205Z,15.99
2019-04-19T06:34:15.812Z,16.02
2019-04-19T06:36:29.254Z,16.35
2019-04-19T06:38:59.311Z,16.86
2019-04-19T06:41:32.090Z,16.43
2019-04-19T06:44:08.629Z,16.70
2019-04-19T06:46:41.484Z,16.87
2019-04-19T06:49:05.993Z,17.03
2019-04-19T06:51:38.987Z,17.37
2019-04-19T06:54:03.950Z,17.77
2019-04-19T06:56:34.025Z,18.02
2019-04-19T06:59:10.391Z,18.22
2019-04-19T07:01:38.287Z,18.53
2019-04-19T07:04:00.065Z,18.94
2019-04-19T07:06:44.303Z,19.18
2019-04-19T07:11:51.747Z,19.65
2019-04-19T07:14:07.423Z,19.92
2019-04-19T07:16:51.064Z,20.34
2019-04-19T07:19:23.140Z,20.11
2019-04-19T07:21:46.857Z,20.49
2019-04-19T07:24:30.486Z,21.20
2019-04-19T07:26:54.664Z,21.20
2019-04-19T07:29:02.276Z,21.56
2019-04-19T07:31:33.740Z,21.88
2019-04-19T07:34:09.245Z,22.17
2019-04-19T07:36:49.905Z,22.51
2019-04-19T07:39:20.593Z,22.77
2019-04-19T07:41:54.308Z,23.00
2019-04-19T07:44:20.042Z,23.11
2019-04-19T07:47:06.631Z,23.39
2019-04-19T07:49:25.342Z,23.63
2019-04-19T07:52:04.605Z,23.54
2019-04-19T07:54:28.894Z,23.88
2019-04-19T07:57:10.016Z,23.54
2019-04-19T07:59:47.098Z,24.35
2019-04-19T08:05:01.307Z,24.87
2019-04-19T08:09:58.586Z,24.85
2019-04-19T08:12:22.709Z,25.20
2019-04-19T08:29:38.626Z,30.66
2019-04-19T08:31:58.458Z,31.18
2019-04-19T08:34:29.646Z,31.03
2019-04-19T08:37:03.019Z,31.59
2019-04-19T08:39:44.686Z,32.71
2019-04-19T08:42:14.891Z,29.79
2019-04-19T08:44:41.988Z,31.55
2019-04-19T08:47:01.948Z,32.71
2019-04-19T08:49:38.355Z,33.26
2019-04-19T08:52:08.238Z,31.89
2019-04-19T08:54:53.595Z,34.13
2019-04-19T08:57:12.598Z,34.34
2019-04-19T08:59:58.054Z,34.68
2019-04-19T09:02:23.525Z,33.58
2019-04-19T09:04:54.591Z,34.24
2019-04-19T09:07:43.517Z,36.04
2019-04-19T09:10:12.299Z,35.73
2019-04-19T09:12:26.887Z,36.29
2019-04-19T09:14:56.371Z,35.70
2019-04-19T09:17:36.003Z,36.41
2019-04-19T09:20:11.370Z,36.21
2019-04-19T09:22:25.393Z,36.53
2019-04-19T09:24:49.137Z,37.10
2019-04-19T09:27:32.989Z,37.33
2019-04-19T09:29:58.918Z,37.75
2019-04-19T09:32:15.256Z,37.24
2019-04-19T09:34:46.200Z,36.97
2019-04-19T09:37:18.409Z,36.30
2019-04-19T09:39:48.737Z,36.71
2019-04-19T09:42:21.730Z,36.51
2019-04-19T09:44:46.090Z,36.37
2019-04-19T09:47:10.437Z,37.01
2019-04-19T09:49:54.426Z,37.78
2019-04-19T09:52:34.383Z,36.20
2019-04-19T09:55:03.351Z,36.16
2019-04-19T09:57:29.018Z,34.38
2019-04-19T09:59:42.980Z,34.31
2019-04-19T10:02:22.383Z,33.86
2019-04-19T10:04:42.132Z,34.39
2019-04-19T10:07:11.210Z,35.52
2019-04-19T10:09:40.789Z,36.14
2019-04-19T10:12:09.307Z,36.93
2019-04-19T10:14:37.810Z,36.71
2019-04-19T10:17:12.344Z,36.12
2019-04-19T10:19:42.380Z,35.61
2019-04-19T10:22:12.658Z,35.13
2019-04-19T10:24:41.293Z,35.52
2019-04-19T10:27:26.943Z,36.85
2019-04-19T10:29:56.080Z,35.54
2019-04-19T10:32:26.756Z,35.58
2019-04-19T10:34:56.754Z,36.02
2019-04-19T10:37:26.023Z,35.85
2019-04-19T10:39:55.342Z,34.75
2019-04-19T10:42:25.072Z,34.83
2019-04-19T10:44:54.052Z,34.32
2019-04-19T10:47:24.741Z,34.32
2019-04-19T10:50:06.669Z,34.50
2019-04-19T10:52:25.844Z,33.62
2019-04-19T10:54:57.166Z,31.94
2019-04-19T10:57:27.349Z,30.87
2019-04-19T10:59:58.800Z,30.95
2019-04-19T11:02:29.829Z,29.62
2019-04-19T11:04:59.159Z,29.61
2019-04-19T11:07:27.976Z,28.09
2019-04-19T11:09:57.766Z,28.05
2019-04-19T11:12:26.565Z,27.91
2019-04-19T11:14:55.459Z,26.32
2019-04-19T11:17:23.995Z,26.80
2019-04-19T11:20:05.922Z,26.13
2019-04-19T11:22:23.824Z,25.34
2019-04-19T11:24:52.638Z,25.39
2019-04-19T11:27:21.438Z,25.04
2019-04-19T11:29:52.493Z,24.69
2019-04-19T11:32:26.113Z,24.42
2019-04-19T11:34:55.626Z,24.35
2019-04-19T11:37:25.458Z,24.53
2019-04-19T11:39:55.137Z,24.30
2019-04-19T11:42:23.858Z,24.21
2019-04-19T11:44:53.780Z,23.93
2019-04-19T11:47:23.007Z,24.01
2019-04-19T11:49:51.651Z,23.76
2019-04-19T11:52:22.001Z,23.62
2019-04-19T11:54:50.711Z,23.48
2019-04-19T11:57:30.350Z,23.26
2019-04-19T12:00:04.121Z,23.00
2019-04-19T12:02:40.606Z,23.14
2019-04-19T12:05:16.520Z,23.11
2019-04-19T12:07:40.603Z,22.79
2019-04-19T12:10:10.374Z,23.13
2019-04-19T12:12:39.169Z,23.06
2019-04-19T12:15:10.287Z,23.13
2019-04-19T12:17:40.099Z,22.84
2019-04-19T12:20:09.756Z,22.92
2019-04-19T12:22:39.911Z,22.96
2019-04-19T12:25:10.005Z,22.82
2019-04-19T12:27:39.448Z,22.80
2019-04-19T12:30:09.351Z,22.85
2019-04-19T12:32:39.638Z,22.71
2019-04-19T12:35:08.817Z,22.63
2019-04-19T12:37:37.547Z,22.74
2019-04-19T12:40:06.767Z,22.72
2019-04-19T12:42:35.928Z,22.68
2019-04-19T12:45:08.264Z,22.81
2019-04-19T12:47:38.098Z,22.71
2019-04-19T12:50:10.701Z,22.74
2019-04-19T12:52:39.937Z,22.69
2019-04-19T12:55:10.259Z,22.63
2019-04-19T12:57:41.601Z,22.76
2019-04-19T13:00:11.949Z,22.79
2019-04-19T13:02:51.757Z,22.76
2019-04-19T13:05:22.429Z,22.65
2019-04-19T13:08:01.038Z,22.73
2019-04-19T13:10:29.457Z,22.69
2019-04-19T13:12:58.175Z,22.55
2019-04-19T13:15:27.492Z,22.66
2019-04-19T13:17:56.073Z,22.52
2019-04-19T13:20:30.619Z,22.73
2019-04-19T13:22:54.841Z,22.72
2019-04-19T13:25:23.657Z,22.70
2019-04-19T13:27:55.108Z,22.39
2019-04-19T13:30:31.935Z,22.52
2019-04-19T13:32:54.874Z,22.62
2019-04-19T13:35:23.512Z,22.56
2019-04-19T13:37:54.737Z,22.38
2019-04-19T13:40:26.217Z,22.36
2019-04-19T13:42:56.982Z,22.37
2019-04-19T13:45:29.852Z,22.40
2019-04-19T13:47:56.542Z,22.21
2019-04-19T13:50:31.766Z,22.32
2019-04-19T13:52:55.526Z,22.36
2019-04-19T13:55:24.446Z,22.31
2019-04-19T13:57:53.663Z,22.26
2019-04-19T14:00:26.338Z,22.24
2019-04-19T14:02:55.657Z,22.34
2019-04-19T14:05:24.252Z,22.36
2019-04-19T14:07:53.149Z,22.31
2019-04-19T14:10:21.758Z,22.29
2019-04-19T14:12:51.356Z,22.32
2019-04-19T14:15:20.432Z,22.36
2019-04-19T14:17:49.789Z,22.32
2019-04-19T14:20:29.696Z,22.31
2019-04-19T14:22:49.740Z,22.28
2019-04-19T14:25:19.457Z,22.29
2019-04-19T14:27:49.033Z,22.22
2019-04-19T14:30:19.362Z,22.26
2019-04-19T14:32:47.923Z,22.22
2019-04-19T14:35:17.968Z,22.21
2019-04-19T14:37:46.977Z,22.22
2019-04-19T14:40:19.565Z,22.26
2019-04-19T14:42:48.746Z,22.25
2019-04-19T14:45:19.829Z,22.24
2019-04-19T14:47:48.833Z,22.15
2019-04-19T14:50:18.971Z,22.11
2019-04-19T14:52:48.806Z,22.14
2019-04-19T14:55:18.177Z,22.18
2019-04-19T14:57:46.786Z,22.12
2019-04-19T15:00:19.344Z,22.03
2019-04-19T15:02:51.726Z,22.08
2019-04-19T15:05:28.159Z,22.06
2019-04-19T15:07:56.899Z,22.05
2019-04-19T15:10:25.520Z,22.06
2019-04-19T15:12:56.655Z,22.03
2019-04-19T15:15:26.680Z,22.08
2019-04-19T15:17:55.405Z,22.08
2019-04-19T15:20:26.419Z,22.06
2019-04-19T15:22:56.025Z,22.02
2019-04-19T15:25:25.661Z,21.98
2019-04-19T15:27:54.943Z,21.98
2019-04-19T15:30:25.318Z,21.97
2019-04-19T15:32:54.206Z,21.98
2019-04-19T15:35:23.568Z,21.92
2019-04-19T15:37:52.243Z,21.94
2019-04-19T15:40:23.059Z,21.93
2019-04-19T15:42:52.815Z,21.93
2019-04-19T15:45:25.072Z,21.94
2019-04-19T15:47:54.921Z,21.98
2019-04-19T15:50:24.462Z,21.98
2019-04-19T15:52:53.751Z,21.89
2019-04-19T15:57:50.698Z,21.94
2019-04-19T16:00:23.713Z,21.93
2019-04-19T16:05:28.742Z,21.90
2019-04-19T16:08:06.545Z,21.87
2019-04-19T16:10:40.276Z,21.84
2019-04-19T16:13:09.755Z,21.83
2019-04-19T16:15:38.313Z,21.84
2019-04-19T16:18:08.190Z,21.84
2019-04-19T16:20:36.874Z,21.79
2019-04-19T16:23:05.808Z,21.73
2019-04-19T16:25:34.452Z,21.68
2019-04-19T16:28:03.289Z,21.69
2019-04-19T16:30:32.515Z,21.63
2019-04-19T16:33:01.717Z,21.64
2019-04-19T16:35:30.605Z,21.57
2019-04-19T16:38:01.431Z,21.53
2019-04-19T16:40:30.203Z,21.49
2019-04-19T16:42:59.381Z,21.49
2019-04-19T16:45:28.204Z,21.49
2019-04-19T16:47:57.670Z,21.48
2019-04-19T16:50:26.265Z,21.39
2019-04-19T16:52:54.730Z,21.35
2019-04-19T16:55:23.403Z,21.33
2019-04-19T16:57:52.495Z,21.22
2019-04-19T17:00:24.882Z,21.19
2019-04-19T17:02:53.454Z,21.18
2019-04-19T17:05:21.945Z,21.12
2019-04-19T17:07:51.327Z,21.09
2019-04-19T17:10:20.454Z,21.05
2019-04-19T17:12:51.474Z,21.00
2019-04-19T17:15:21.732Z,20.97
2019-04-19T17:18:04.921Z,20.90
2019-04-19T17:20:38.058Z,20.87
2019-04-19T17:23:06.543Z,20.77
2019-04-19T17:25:35.469Z,20.74
2019-04-19T17:28:05.119Z,20.68
2019-04-19T17:30:36.261Z,20.66
2019-04-19T17:33:06.184Z,20.59
2019-04-19T17:35:34.805Z,20.56
2019-04-19T17:38:03.284Z,20.53
2019-04-19T17:40:32.366Z,20.50
2019-04-19T17:43:01.378Z,20.44
2019-04-19T17:45:29.926Z,20.33
2019-04-19T17:47:58.589Z,20.28
2019-04-19T17:50:27.237Z,20.19
2019-04-19T17:52:56.909Z,20.24
2019-04-19T17:55:30.999Z,20.19
2019-04-19T17:57:56.957Z,20.07
2019-04-19T18:00:26.165Z,19.96
2019-04-19T18:02:55.189Z,19.89
2019-04-19T18:05:24.319Z,19.85
2019-04-19T18:07:53.908Z,19.77
2019-04-19T18:10:27.190Z,19.66
2019-04-19T18:12:53.119Z,19.66
2019-04-19T18:15:21.750Z,19.55
2019-04-19T18:17:56.515Z,19.49
2019-04-19T18:20:22.926Z,19.42
2019-04-19T18:23:00.721Z,19.40
2019-04-19T18:25:22.152Z,19.34
2019-04-19T18:27:53.814Z,19.24
2019-04-19T18:30:22.124Z,19.22
2019-04-19T18:32:52.593Z,19.16
2019-04-19T18:35:27.230Z,19.10
2019-04-19T18:37:51.758Z,19.02
2019-04-19T18:40:21.572Z,18.97
2019-04-19T18:43:06.685Z,18.87
2019-04-19T18:45:23.639Z,18.83
2019-04-19T18:47:50.806Z,18.67
2019-04-19T18:50:20.341Z,18.62
2019-04-19T18:52:53.433Z,18.48
2019-04-19T18:55:28.502Z,18.41
2019-04-19T18:57:49.812Z,18.33
2019-04-19T19:00:19.066Z,18.36
2019-04-19T19:02:54.132Z,18.33
2019-04-19T19:05:18.256Z,18.22
2019-04-19T19:07:49.405Z,18.23
2019-04-19T19:10:25.723Z,18.20
2019-04-19T19:12:51.288Z,18.05
2019-04-19T19:15:20.450Z,18.02
2019-04-19T19:17:54.224Z,17.87
2019-04-19T19:20:22.525Z,17.82
2019-04-19T19:23:02.464Z,17.74
2019-04-19T19:25:34.249Z,17.71
2019-04-19T19:27:50.535Z,17.63
2019-04-19T19:30:21.068Z,17.66
2019-04-19T19:35:23.869Z,17.47
2019-04-19T19:37:50.892Z,17.40
2019-04-19T19:40:31.632Z,17.39
2019-04-19T19:41:43.633Z,17.53
2019-04-19T19:43:18.090Z,17.37
2019-04-19T19:45:36.416Z,17.24
2019-04-19T19:48:20.236Z,17.19
2019-04-19T19:50:54.236Z,17.17
2019-04-19T19:53:25.362Z,17.10
2019-04-19T19:55:53.257Z,16.97
2019-04-19T19:58:05.834Z,16.88
2019-04-19T20:00:37.735Z,16.86
2019-04-19T20:03:10.765Z,16.88
2019-04-19T20:05:34.407Z,16.83
2019-04-19T20:07:59.973Z,16.73
2019-04-19T20:10:33.826Z,16.58
2019-04-19T20:13:02.626Z,16.59
2019-04-19T20:15:33.834Z,16.47
2019-04-19T20:18:00.255Z,16.44
2019-04-19T20:20:34.175Z,16.42
2019-04-19T20:23:00.262Z,16.38
2019-04-19T20:25:40.655Z,16.32
2019-04-19T20:27:59.509Z,16.36
2019-04-19T20:30:36.850Z,16.28
2019-04-19T20:33:02.633Z,16.17
2019-04-19T20:35:30.032Z,16.13
2019-04-19T20:38:02.459Z,16.09
2019-04-19T20:40:30.826Z,16.01
2019-04-19T20:43:21.072Z,15.90
2019-04-19T20:45:38.945Z,15.85
2019-04-19T20:48:07.904Z,15.79
2019-04-19T20:50:42.538Z,15.74
2019-04-19T20:53:15.763Z,15.75
2019-04-19T20:55:55.532Z,15.71
2019-04-19T20:58:25.740Z,15.64
2019-04-19T21:00:42.368Z,15.61
2019-04-19T21:03:11.034Z,15.58
2019-04-19T21:05:44.373Z,15.43
2019-04-19T21:08:12.687Z,15.46
2019-04-19T21:10:49.988Z,15.41
2019-04-19T21:13:12.788Z,15.36
2019-04-19T21:15:41.678Z,15.27
2019-04-19T21:18:19.047Z,15.23
2019-04-19T21:20:40.787Z,15.09
2019-04-19T21:23:16.171Z,15.09
2019-04-19T21:25:46.795Z,15.02
2019-04-19T21:28:10.559Z,14.97
2019-04-19T21:30:45.140Z,14.93
2019-04-19T21:33:13.687Z,14.86
2019-04-19T21:35:48.339Z,14.75
2019-04-19T21:38:14.601Z,14.74
2019-04-19T21:40:43.202Z,14.68
2019-04-19T21:43:11.222Z,14.63
2019-04-19T21:45:43.119Z,14.61
2019-04-19T21:48:10.960Z,14.65
2019-04-19T21:50:44.092Z,14.60
2019-04-19T21:53:11.136Z,14.45
2019-04-19T21:55:43.787Z,14.40
2019-04-19T21:58:13.442Z,14.40
2019-04-19T22:00:54.338Z,14.35
2019-04-19T22:03:22.813Z,14.31
2019-04-19T22:05:47.476Z,14.28
2019-04-19T22:08:23.464Z,14.20
2019-04-19T22:10:49.718Z,14.21
2019-04-19T22:13:17.434Z,14.10
2019-04-19T22:15:51.144Z,14.13
2019-04-19T22:18:16.126Z,14.13
2019-04-19T22:20:51.322Z,14.10
2019-04-19T22:23:16.148Z,13.96
2019-04-19T22:25:52.562Z,13.89
2019-04-19T22:28:15.377Z,13.84
2019-04-19T22:30:48.730Z,13.80
2019-04-19T22:33:14.383Z,13.80
2019-04-19T22:35:46.119Z,13.81
2019-04-19T22:38:17.994Z,13.83
2019-04-19T22:40:43.380Z,13.77
2019-04-19T22:43:14.466Z,13.65
2019-04-19T22:45:42.476Z,13.67
2019-04-19T22:48:16.301Z,13.68
2019-04-19T22:50:42.446Z,13.55
2019-04-19T22:53:11.005Z,13.44
2019-04-19T22:55:47.430Z,13.52
2019-04-19T22:58:16.806Z,13.35
2019-04-19T23:00:43.883Z,13.39
2019-04-19T23:03:23.975Z,13.33
2019-04-19T23:05:50.305Z,13.37
2019-04-19T23:08:28.145Z,13.31
2019-04-19T23:10:54.478Z,13.28
2019-04-19T23:13:23.273Z,13.21
2019-04-19T23:15:59.939Z,13.20
2019-04-19T23:18:24.847Z,13.24
2019-04-19T23:20:56.585Z,13.20
2019-04-19T23:23:27.983Z,13.09
2019-04-19T23:26:07.378Z,13.12
2019-04-19T23:28:29.035Z,13.04
2019-04-19T23:31:02.075Z,13.03
2019-04-19T23:33:24.466Z,13.02
2019-04-19T23:35:53.354Z,13.01
2019-04-19T23:38:25.696Z,12.93
2019-04-19T23:40:53.122Z,12.91
2019-04-19T23:43:27.965Z,12.89
2019-04-19T23:45:52.931Z,12.82
2019-04-19T23:48:26.604Z,12.84
2019-04-19T23:50:52.448Z,12.79
2019-04-19T23:53:23.232Z,12.77
2019-04-19T23:55:51.131Z,12.75
2019-04-19T23:58:28.169Z,12.75
